createdAt,value
2022-12-11T00:00:27.297Z,100711.06
2022-12-11T00:02:53.882Z,100711.72
2022-12-11T00:05:20.479Z,100713.72
2022-12-11T00:07:47.067Z,100711.06
2022-12-11T00:10:13.697Z,100714.38
2022-12-11T00:12:40.241Z,100716.84
2022-12-11T00:15:07.472Z,100713.22
2022-12-11T00:17:34.290Z,100714.69
2022-12-11T00:20:00.849Z,100712.69
2022-12-11T00:22:27.391Z,100702.91
2022-12-11T00:24:53.939Z,100715.97
2022-12-11T00:27:20.441Z,100711.31
2022-12-11T00:29:46.982Z,100705.06
2022-12-11T00:32:13.531Z,100699.75
2022-12-11T00:34:40.231Z,100711.16
2022-12-11T00:37:06.881Z,100698.75
2022-12-11T00:39:33.520Z,100702.41
2022-12-11T00:42:00.222Z,100709.50
2022-12-11T00:44:26.799Z,100702.59
2022-12-11T00:46:53.379Z,100707.19
2022-12-11T00:49:19.905Z,100703.75
2022-12-11T00:51:46.427Z,100704.75
2022-12-11T00:54:12.958Z,100704.09
2022-12-11T00:56:39.741Z,100705.28
2022-12-11T00:59:06.543Z,100709.09
2022-12-11T01:01:33.515Z,100715.22
2022-12-11T01:04:00.149Z,100712.75
2022-12-11T01:06:28.016Z,100709.25
2022-12-11T01:09:30.805Z,100707.44
2022-12-11T01:11:57.575Z,100706.44
2022-12-11T01:14:24.157Z,100713.38
2022-12-11T01:16:50.724Z,100706.44
2022-12-11T01:19:17.318Z,100705.44
2022-12-11T01:21:43.902Z,100716.69
2022-12-11T01:24:10.442Z,100725.25
2022-12-11T01:26:37.010Z,100723.28
2022-12-11T01:29:03.666Z,100721.09
2022-12-11T01:31:30.204Z,100715.81
2022-12-11T01:33:56.834Z,100720.09
2022-12-11T01:36:23.841Z,100714.81
2022-12-11T01:38:50.682Z,100714.63
2022-12-11T01:41:18.042Z,100714.47
2022-12-11T01:44:03.062Z,100716.09
2022-12-11T01:46:31.485Z,100713.63
2022-12-11T01:48:59.203Z,100713.63
2022-12-11T01:51:26.558Z,100706.69
2022-12-11T01:53:58.690Z,100717.44
2022-12-11T01:56:25.324Z,100711.53
2022-12-11T01:58:56.946Z,100714.16
2022-12-11T02:01:32.703Z,100712.69
2022-12-11T02:04:00.008Z,100713.84
2022-12-11T02:06:48.090Z,100719.34
2022-12-11T02:09:17.752Z,100716.03
2022-12-11T02:11:50.050Z,100719.66
2022-12-11T02:14:36.853Z,100724.97
2022-12-11T02:17:10.476Z,100727.59
2022-12-11T02:19:43.122Z,100725.13
2022-12-11T02:22:13.952Z,100719.84
2022-12-11T02:25:03.858Z,100720.69
2022-12-11T02:27:59.433Z,100719.66
2022-12-11T02:30:26.223Z,100713.38
2022-12-11T02:32:57.340Z,100710.56
2022-12-11T02:35:38.087Z,100707.75
2022-12-11T02:38:10.594Z,100709.22
2022-12-11T02:40:39.388Z,100710.69
2022-12-11T02:43:08.685Z,100710.53
2022-12-11T02:45:35.749Z,100712.00
2022-12-11T02:48:04.200Z,100699.59
2022-12-11T02:50:30.841Z,100699.59
2022-12-11T02:52:57.826Z,100702.25
2022-12-11T02:55:25.695Z,100697.75
2022-12-11T02:58:00.280Z,100696.09
2022-12-11T03:00:26.821Z,100689.19
2022-12-11T03:02:53.489Z,100694.63
2022-12-11T03:05:20.054Z,100693.97
2022-12-11T03:07:46.664Z,100691.53
2022-12-11T03:10:15.803Z,100691.53
2022-12-11T03:12:46.138Z,100696.16
2022-12-11T03:15:16.769Z,100691.03
2022-12-11T03:18:25.551Z,100685.91
2022-12-11T03:21:01.175Z,100692.22
2022-12-11T03:23:34.738Z,100680.81
2022-12-11T03:26:08.278Z,100685.28
2022-12-11T03:28:56.068Z,100683.63
2022-12-11T03:31:27.333Z,100681.97
2022-12-11T03:33:56.686Z,100690.56
2022-12-11T03:36:31.781Z,100692.38
2022-12-11T03:39:01.301Z,100694.06
2022-12-11T03:41:29.192Z,100699.13
2022-12-11T03:43:58.263Z,100686.56
2022-12-11T03:46:30.487Z,100688.88
2022-12-11T03:49:01.169Z,100684.22
2022-12-11T03:51:30.060Z,100687.72
2022-12-11T03:53:57.038Z,100691.16
2022-12-11T03:56:25.758Z,100682.22
2022-12-11T03:58:52.341Z,100686.38
2022-12-11T04:01:19.358Z,100685.69
2022-12-11T04:03:45.931Z,100687.16
2022-12-11T04:06:12.561Z,100684.84
2022-12-11T04:08:39.090Z,100686.69
2022-12-11T04:11:24.126Z,100684.84
2022-12-11T04:14:10.634Z,100689.53
2022-12-11T04:16:38.605Z,100686.41
2022-12-11T04:19:24.245Z,100687.38
2022-12-11T04:22:09.556Z,100689.22
2022-12-11T04:24:36.124Z,100679.81
2022-12-11T04:27:02.705Z,100681.00
2022-12-11T04:29:29.279Z,100687.25
2022-12-11T04:31:55.823Z,100680.31
2022-12-11T04:34:22.408Z,100671.75
2022-12-11T04:36:48.993Z,100682.34
2022-12-11T04:39:15.578Z,100671.09
2022-12-11T04:41:42.253Z,100677.03
2022-12-11T04:44:08.868Z,100678.06
2022-12-11T04:46:35.690Z,100671.75
2022-12-11T04:49:02.326Z,100672.38
2022-12-11T04:51:29.149Z,100678.34
2022-12-11T04:53:55.714Z,100679.81
2022-12-11T04:56:22.449Z,100677.81
2022-12-11T04:58:49.026Z,100675.00
2022-12-11T05:01:20.808Z,100673.63
2022-12-11T05:03:47.578Z,100672.63
2022-12-11T05:06:14.218Z,100665.34
2022-12-11T05:08:42.378Z,100668.00
2022-12-11T05:11:11.630Z,100659.91
2022-12-11T05:13:38.436Z,100661.72
2022-12-11T05:16:06.541Z,100667.84
2022-12-11T05:18:33.316Z,100659.22
2022-12-11T05:21:02.263Z,100664.53
2022-12-11T05:23:29.308Z,100664.88
2022-12-11T05:26:04.519Z,100660.59
2022-12-11T05:28:32.899Z,100652.19
2022-12-11T05:31:26.577Z,100660.13
2022-12-11T05:33:53.816Z,100651.50
2022-12-11T05:36:21.714Z,100650.88
2022-12-11T05:38:48.521Z,100646.94
2022-12-11T05:41:18.240Z,100646.94
2022-12-11T05:43:45.271Z,100648.75
2022-12-11T05:46:17.199Z,100641.66
2022-12-11T05:48:46.067Z,100642.66
2022-12-11T05:51:14.243Z,100643.66
2022-12-11T05:53:41.740Z,100642.66
2022-12-11T05:56:11.257Z,100631.41
2022-12-11T05:58:37.979Z,100637.38
2022-12-11T06:01:09.137Z,100637.00
2022-12-11T06:03:35.688Z,100641.31
2022-12-11T06:06:03.631Z,100641.78
2022-12-11T06:08:30.490Z,100634.47
2022-12-11T06:10:57.215Z,100637.78
2022-12-11T06:13:24.189Z,100641.88
2022-12-11T06:15:50.887Z,100639.06
2022-12-11T06:18:17.596Z,100644.38
2022-12-11T06:20:44.198Z,100645.16
2022-12-11T06:23:10.927Z,100641.53
2022-12-11T06:25:40.633Z,100639.88
2022-12-11T06:28:07.433Z,100636.59
2022-12-11T06:30:38.322Z,100634.97
2022-12-11T06:33:05.877Z,100628.84
2022-12-11T06:35:36.139Z,100633.50
2022-12-11T06:38:06.741Z,100632.03
2022-12-11T06:40:33.313Z,100633.00
2022-12-11T06:42:59.839Z,100637.66
2022-12-11T06:45:26.409Z,100638.66
2022-12-11T06:47:52.993Z,100645.13
2022-12-11T06:50:19.626Z,100641.66
2022-12-11T06:52:46.201Z,100652.22
2022-12-11T06:55:13.074Z,100648.94
2022-12-11T06:57:39.921Z,100650.59
2022-12-11T07:00:07.132Z,100652.56
2022-12-11T07:02:34.370Z,100645.31
2022-12-11T07:05:00.973Z,100646.09
2022-12-11T07:07:27.540Z,100650.41
2022-12-11T07:09:54.131Z,100644.94
2022-12-11T07:12:21.139Z,100647.22
2022-12-11T07:14:47.706Z,100642.59
2022-12-11T07:17:14.488Z,100650.34
2022-12-11T07:19:41.182Z,100647.34
2022-12-11T07:22:07.754Z,100653.31
2022-12-11T07:24:34.429Z,100647.19
2022-12-11T07:27:00.968Z,100649.66
2022-12-11T07:29:27.511Z,100657.41
2022-12-11T07:31:54.136Z,100654.13
2022-12-11T07:34:20.814Z,100656.75
2022-12-11T07:36:47.392Z,100665.69
2022-12-11T07:39:13.961Z,100663.22
2022-12-11T07:41:40.709Z,100662.59
2022-12-11T07:44:07.242Z,100660.13
2022-12-11T07:46:34.358Z,100660.47
2022-12-11T07:49:01.430Z,100665.91
2022-12-11T07:51:30.657Z,100667.75
2022-12-11T07:53:59.543Z,100670.75
2022-12-11T07:56:27.383Z,100674.41
2022-12-11T07:58:54.222Z,100670.28
2022-12-11T08:01:28.612Z,100680.03
2022-12-11T08:03:55.841Z,100677.38
2022-12-11T08:06:28.054Z,100674.09
2022-12-11T08:08:55.510Z,100681.22
2022-12-11T08:11:22.107Z,100673.25
2022-12-11T08:13:48.896Z,100675.75
2022-12-11T08:16:16.450Z,100679.19
2022-12-11T08:18:43.876Z,100680.69
2022-12-11T08:21:12.020Z,100683.13
2022-12-11T08:23:38.585Z,100676.66
2022-12-11T08:26:07.177Z,100681.63
2022-12-11T08:28:33.770Z,100690.22
2022-12-11T08:31:00.403Z,100680.28
2022-12-11T08:33:26.951Z,100685.22
2022-12-11T08:35:53.520Z,100683.59
2022-12-11T08:38:25.200Z,100682.59
2022-12-11T08:40:52.198Z,100686.03
2022-12-11T08:43:18.825Z,100684.41
2022-12-11T08:45:46.438Z,100688.03
2022-12-11T08:48:13.048Z,100682.94
2022-12-11T08:50:39.585Z,100678.63
2022-12-11T08:53:06.152Z,100679.81
2022-12-11T08:55:33.380Z,100680.63
2022-12-11T08:58:00.080Z,100680.00
2022-12-11T09:00:26.662Z,100688.94
2022-12-11T09:02:53.243Z,100680.31
2022-12-11T09:05:19.837Z,100683.34
2022-12-11T09:07:46.402Z,100686.00
2022-12-11T09:10:13.061Z,100690.44
2022-12-11T09:12:39.794Z,100690.44
2022-12-11T09:15:06.983Z,100692.25
2022-12-11T09:17:34.637Z,100691.44
2022-12-11T09:20:01.675Z,100694.25
2022-12-11T09:22:28.520Z,100691.63
2022-12-11T09:24:55.105Z,100686.16
2022-12-11T09:27:22.144Z,100682.34
2022-12-11T09:29:49.297Z,100677.69
2022-12-11T09:32:15.823Z,100671.38
2022-12-11T09:34:42.372Z,100667.41
2022-12-11T09:37:09.346Z,100666.41
2022-12-11T09:39:35.897Z,100665.25
2022-12-11T09:42:22.219Z,100665.06
2022-12-11T09:44:53.819Z,100667.50
2022-12-11T09:47:50.506Z,100662.06
2022-12-11T09:50:23.942Z,100668.19
2022-12-11T09:53:17.141Z,100666.53
2022-12-11T09:56:04.954Z,100668.34
2022-12-11T09:58:49.047Z,100656.13
2022-12-11T10:01:35.836Z,100658.28
2022-12-11T10:04:08.036Z,100661.13
2022-12-11T10:06:50.733Z,100658.81
2022-12-11T10:09:27.790Z,100657.97
2022-12-11T10:12:20.802Z,100655.50
2022-12-11T10:14:59.930Z,100653.88
2022-12-11T10:17:34.264Z,100647.09
2022-12-11T10:20:09.794Z,100647.28
2022-12-11T10:22:36.530Z,100642.00
2022-12-11T10:25:13.252Z,100642.00
2022-12-11T10:27:41.061Z,100639.50
2022-12-11T10:30:17.989Z,100640.53
2022-12-11T10:32:52.433Z,100635.22
2022-12-11T10:35:27.155Z,100634.06
2022-12-11T10:37:57.208Z,100626.78
2022-12-11T10:40:25.841Z,100630.91
2022-12-11T10:42:54.213Z,100630.91
2022-12-11T10:45:20.781Z,100627.06
2022-12-11T10:47:47.336Z,100622.41
2022-12-11T10:50:26.133Z,100620.25
2022-12-11T10:52:53.401Z,100616.59
2022-12-11T10:55:26.223Z,100619.72
2022-12-11T10:58:04.145Z,100617.06
2022-12-11T11:00:34.652Z,100612.63
2022-12-11T11:03:02.111Z,100616.25
2022-12-11T11:05:36.187Z,100611.78
2022-12-11T11:08:19.359Z,100602.38
2022-12-11T11:11:00.331Z,100608.50
2022-12-11T11:13:31.122Z,100604.38
2022-12-11T11:16:03.269Z,100605.34
2022-12-11T11:18:30.691Z,100609.19
2022-12-11T11:20:57.531Z,100601.44
2022-12-11T11:23:24.875Z,100595.66
2022-12-11T11:25:57.849Z,100592.22
2022-12-11T11:28:30.255Z,100596.84
2022-12-11T11:31:14.471Z,100597.69
2022-12-11T11:33:50.530Z,100596.84
2022-12-11T11:36:28.675Z,100596.22
2022-12-11T11:39:28.822Z,100586.44
2022-12-11T11:42:21.316Z,100588.28
2022-12-11T11:44:57.199Z,100595.03
2022-12-11T11:47:30.917Z,100586.94
2022-12-11T11:50:06.652Z,100586.56
2022-12-11T11:52:56.189Z,100580.28
2022-12-11T11:55:38.612Z,100571.16
2022-12-11T11:58:11.702Z,100572.81
2022-12-11T12:00:38.299Z,100568.16
2022-12-11T12:03:14.178Z,100567.16
2022-12-11T12:06:01.354Z,100564.97
2022-12-11T12:08:42.032Z,100566.78
2022-12-11T12:11:26.131Z,100558.06
2022-12-11T12:14:52.648Z,100564.31
2022-12-11T12:17:55.968Z,100572.47
2022-12-11T12:20:34.527Z,100575.28
2022-12-11T12:23:24.087Z,100578.28
2022-12-11T12:25:56.241Z,100569.69
2022-12-11T12:28:28.601Z,100576.16
2022-12-11T12:31:36.464Z,100574.50
2022-12-11T12:34:19.661Z,100576.16
2022-12-11T12:36:49.249Z,100576.53
2022-12-11T12:39:53.964Z,100580.97
2022-12-11T12:42:36.255Z,100571.22
2022-12-11T12:45:15.025Z,100563.47
2022-12-11T12:47:50.396Z,100561.66
2022-12-11T12:50:25.427Z,100560.66
2022-12-11T12:52:53.138Z,100566.56
2022-12-11T12:55:25.834Z,100561.09
2022-12-11T12:58:02.070Z,100565.22
2022-12-11T13:00:42.879Z,100563.22
2022-12-11T13:03:27.589Z,100557.72
2022-12-11T13:06:00.448Z,100560.88
2022-12-11T13:08:32.589Z,100554.56
2022-12-11T13:11:05.415Z,100554.41
2022-12-11T13:13:38.791Z,100555.19
2022-12-11T13:16:17.513Z,100546.28
2022-12-11T13:18:49.013Z,100545.44
2022-12-11T13:21:38.190Z,100543.81
2022-12-11T13:24:13.722Z,100544.81
2022-12-11T13:26:41.152Z,100535.41
2022-12-11T13:29:39.954Z,100539.22
2022-12-11T13:32:09.430Z,100547.34
2022-12-11T13:34:38.484Z,100541.41
2022-12-11T13:37:05.816Z,100540.78
2022-12-11T13:39:35.063Z,100536.47
2022-12-11T13:42:04.960Z,100545.56
2022-12-11T13:44:38.126Z,100537.00
2022-12-11T13:47:06.126Z,100533.53
2022-12-11T13:49:38.205Z,100539.81
2022-12-11T13:52:05.637Z,100536.34
2022-12-11T13:54:34.766Z,100532.06
2022-12-11T13:57:23.316Z,100532.06
2022-12-11T13:59:55.419Z,100522.31
2022-12-11T14:02:30.993Z,100523.13
2022-12-11T14:05:00.333Z,100527.25
2022-12-11T14:07:32.970Z,100533.19
2022-12-11T14:10:22.184Z,100532.84
2022-12-11T14:13:38.282Z,100532.47
2022-12-11T14:16:06.151Z,100520.91
2022-12-11T14:18:35.047Z,100529.28
2022-12-11T14:21:04.343Z,100529.47
2022-12-11T14:23:33.374Z,100531.94
2022-12-11T14:26:02.591Z,100533.56
2022-12-11T14:28:36.669Z,100529.47
2022-12-11T14:31:04.305Z,100534.75
2022-12-11T14:33:44.350Z,100538.41
2022-12-11T14:36:11.585Z,100541.22
2022-12-11T14:38:46.701Z,100541.41
2022-12-11T14:41:22.715Z,100541.56
2022-12-11T14:43:53.242Z,100536.47
2022-12-11T14:46:29.209Z,100543.75
2022-12-11T14:49:01.778Z,100537.84
2022-12-11T14:51:36.273Z,100538.00
2022-12-11T14:54:03.359Z,100538.19
2022-12-11T14:56:30.216Z,100539.00
2022-12-11T14:58:59.774Z,100540.00
2022-12-11T15:01:34.952Z,100538.38
2022-12-11T15:04:15.363Z,100541.63
2022-12-11T15:06:47.130Z,100532.91
2022-12-11T15:09:22.004Z,100544.28
2022-12-11T15:11:49.363Z,100536.19
2022-12-11T15:14:18.859Z,100537.63
2022-12-11T15:16:46.715Z,100546.06
2022-12-11T15:19:42.837Z,100545.69
2022-12-11T15:22:12.021Z,100544.50
2022-12-11T15:24:41.147Z,100542.53
2022-12-11T15:27:29.106Z,100543.34
2022-12-11T15:29:56.795Z,100544.00
2022-12-11T15:32:23.551Z,100542.16
2022-12-11T15:34:52.014Z,100538.69
2022-12-11T15:37:33.091Z,100536.06
2022-12-11T15:40:01.440Z,100539.69
2022-12-11T15:42:39.687Z,100536.56
2022-12-11T15:45:09.881Z,100539.22
2022-12-11T15:47:36.836Z,100528.84
2022-12-11T15:50:16.483Z,100538.75
2022-12-11T15:52:44.730Z,100546.88
2022-12-11T15:55:11.578Z,100543.59
2022-12-11T15:57:40.570Z,100542.94
2022-12-11T16:00:07.755Z,100543.13
2022-12-11T16:02:34.399Z,100533.53
2022-12-11T16:05:01.012Z,100545.13
2022-12-11T16:07:27.642Z,100546.13
2022-12-11T16:09:54.194Z,100540.19
2022-12-11T16:12:20.811Z,100539.19
2022-12-11T16:14:47.462Z,100541.63
2022-12-11T16:17:15.149Z,100538.19
2022-12-11T16:19:42.375Z,100546.75
2022-12-11T16:22:09.781Z,100544.78
2022-12-11T16:24:37.646Z,100544.59
2022-12-11T16:27:05.297Z,100533.00
2022-12-11T16:29:38.165Z,100536.13
2022-12-11T16:32:07.083Z,100530.81
2022-12-11T16:34:34.561Z,100534.75
2022-12-11T16:37:01.696Z,100533.91
2022-12-11T16:39:28.289Z,100534.75
2022-12-11T16:41:54.855Z,100532.94
2022-12-11T16:44:23.799Z,100523.34
2022-12-11T16:46:51.302Z,100525.00
2022-12-11T16:49:18.355Z,100527.00
2022-12-11T16:51:45.171Z,100530.66
2022-12-11T16:54:12.218Z,100537.97
2022-12-11T16:56:39.209Z,100537.13
2022-12-11T16:59:06.495Z,100534.66
2022-12-11T17:01:33.510Z,100528.91
2022-12-11T17:04:00.333Z,100532.56
2022-12-11T17:06:26.937Z,100534.38
2022-12-11T17:08:53.650Z,100532.91
2022-12-11T17:11:21.975Z,100532.06
2022-12-11T17:13:56.066Z,100530.25
2022-12-11T17:16:24.892Z,100536.56
2022-12-11T17:18:52.576Z,100530.44
2022-12-11T17:21:20.557Z,100530.44
2022-12-11T17:23:47.139Z,100532.06
2022-12-11T17:26:14.542Z,100522.50
2022-12-11T17:28:41.173Z,100529.25
2022-12-11T17:31:10.220Z,100532.56
2022-12-11T17:33:36.849Z,100527.91
2022-12-11T17:36:06.495Z,100529.34
2022-12-11T17:38:33.122Z,100536.28
2022-12-11T17:40:59.722Z,100531.66
2022-12-11T17:43:26.426Z,100526.19
2022-12-11T17:45:53.253Z,100519.88
2022-12-11T17:48:22.425Z,100518.88
2022-12-11T17:50:50.499Z,100512.75
2022-12-11T17:53:18.394Z,100524.19
2022-12-11T17:55:45.509Z,100520.69
2022-12-11T17:58:13.221Z,100521.69
2022-12-11T18:00:40.967Z,100520.91
2022-12-11T18:03:07.557Z,100523.53
2022-12-11T18:05:34.126Z,100522.09
2022-12-11T18:08:00.724Z,100520.41
2022-12-11T18:10:27.571Z,100524.06
2022-12-11T18:12:54.165Z,100524.41
2022-12-11T18:15:20.733Z,100528.91
2022-12-11T18:17:47.297Z,100519.50
2022-12-11T18:20:15.930Z,100521.13
2022-12-11T18:22:42.941Z,100528.06
2022-12-11T18:25:11.825Z,100525.59
2022-12-11T18:27:39.000Z,100527.59
2022-12-11T18:30:06.457Z,100521.97
2022-12-11T18:32:33.013Z,100526.44
2022-12-11T18:34:59.829Z,100521.97
2022-12-11T18:37:28.061Z,100524.25
2022-12-11T18:39:55.121Z,100527.53
2022-12-11T18:42:32.762Z,100524.72
2022-12-11T18:45:00.141Z,100523.72
2022-12-11T18:47:26.737Z,100526.00
2022-12-11T18:49:53.883Z,100523.34
2022-12-11T18:52:20.481Z,100522.19
2022-12-11T18:54:47.437Z,100518.53
2022-12-11T18:57:13.992Z,100506.31
2022-12-11T18:59:40.603Z,100517.69
2022-12-11T19:02:07.822Z,100514.03
2022-12-11T19:04:36.091Z,100509.13
2022-12-11T19:07:02.704Z,100512.75
2022-12-11T19:09:32.701Z,100515.78
2022-12-11T19:12:02.264Z,100513.13
2022-12-11T19:14:28.934Z,100511.69
2022-12-11T19:16:55.536Z,100527.72
2022-12-11T19:19:22.398Z,100528.72
2022-12-11T19:21:49.977Z,100527.25
2022-12-11T19:24:19.656Z,100526.59
2022-12-11T19:26:46.341Z,100529.25
2022-12-11T19:29:24.977Z,100529.25
2022-12-11T19:31:51.758Z,100532.91
2022-12-11T19:34:18.465Z,100530.09
2022-12-11T19:36:45.079Z,100525.75
2022-12-11T19:39:13.453Z,100523.13
2022-12-11T19:41:40.827Z,100533.53
2022-12-11T19:44:07.993Z,100537.84
2022-12-11T19:46:34.878Z,100529.69
2022-12-11T19:49:01.568Z,100533.81
2022-12-11T19:51:33.882Z,100531.00
2022-12-11T19:54:02.839Z,100524.53
2022-12-11T19:56:29.414Z,100531.47
2022-12-11T19:58:56.287Z,100524.34
2022-12-11T20:01:26.371Z,100526.81
2022-12-11T20:03:53.947Z,100528.28
2022-12-11T20:06:20.586Z,100522.38
2022-12-11T20:08:47.550Z,100519.72
2022-12-11T20:11:18.483Z,100520.91
2022-12-11T20:13:46.629Z,100518.25
2022-12-11T20:16:13.709Z,100518.44
2022-12-11T20:18:40.636Z,100523.91
2022-12-11T20:21:09.971Z,100518.78
2022-12-11T20:23:36.637Z,100518.94
2022-12-11T20:26:10.951Z,100516.47
2022-12-11T20:28:37.747Z,100515.00
2022-12-11T20:31:13.563Z,100508.09
2022-12-11T20:33:43.227Z,100499.53
2022-12-11T20:36:11.434Z,100503.97
2022-12-11T20:38:38.175Z,100503.13
2022-12-11T20:41:05.481Z,100498.69
2022-12-11T20:43:32.108Z,100500.50
2022-12-11T20:46:00.141Z,100497.84
2022-12-11T20:48:26.838Z,100500.50
2022-12-11T20:50:53.385Z,100502.78
2022-12-11T20:53:23.235Z,100509.72
2022-12-11T20:55:49.834Z,100509.38
2022-12-11T20:58:16.408Z,100509.81
2022-12-11T21:00:43.797Z,100510.50
2022-12-11T21:03:10.462Z,100501.38
2022-12-11T21:05:43.303Z,100503.00
2022-12-11T21:08:10.300Z,100499.19
2022-12-11T21:10:41.546Z,100500.81
2022-12-11T21:13:08.481Z,100494.72
2022-12-11T21:15:38.705Z,100502.66
2022-12-11T21:18:06.330Z,100511.41
2022-12-11T21:20:33.119Z,100502.66
2022-12-11T21:22:59.926Z,100508.97
2022-12-11T21:25:26.588Z,100509.13
2022-12-11T21:27:53.131Z,100502.38
2022-12-11T21:30:19.699Z,100503.34
2022-12-11T21:32:46.226Z,100502.91
2022-12-11T21:35:13.188Z,100508.19
2022-12-11T21:37:41.825Z,100504.91
2022-12-11T21:40:09.601Z,100508.75
2022-12-11T21:42:36.207Z,100508.75
2022-12-11T21:47:50.194Z,100517.03
2022-12-11T21:50:17.326Z,100517.66
2022-12-11T21:52:44.069Z,100509.72
2022-12-11T21:55:12.046Z,100513.19
2022-12-11T21:57:38.733Z,100509.72
2022-12-11T22:00:05.914Z,100510.38
2022-12-11T22:02:36.001Z,100507.56
2022-12-11T22:05:06.157Z,100510.22
2022-12-11T22:07:32.704Z,100510.66
2022-12-11T22:09:59.272Z,100507.84
2022-12-11T22:12:27.831Z,100508.31
2022-12-11T22:14:54.921Z,100511.59
2022-12-11T22:17:21.735Z,100514.03
2022-12-11T22:19:48.538Z,100512.22
2022-12-11T22:22:15.088Z,100514.88
2022-12-11T22:24:41.750Z,100514.88
2022-12-11T22:27:08.328Z,100516.50
2022-12-11T22:29:35.566Z,100507.94
2022-12-11T22:32:02.162Z,100511.59
2022-12-11T22:34:28.743Z,100512.59
2022-12-11T22:36:56.227Z,100513.75
2022-12-11T22:39:24.421Z,100516.41
2022-12-11T22:41:51.002Z,100515.13
2022-12-11T22:44:20.281Z,100511.69
2022-12-11T22:46:50.241Z,100518.94
2022-12-11T22:49:18.690Z,100511.41
2022-12-11T22:51:45.401Z,100506.28
2022-12-11T22:54:11.970Z,100508.09
2022-12-11T22:56:39.043Z,100506.28
2022-12-11T22:59:07.454Z,100500.16
2022-12-11T23:01:34.230Z,100502.78
2022-12-11T23:04:00.808Z,100495.03
2022-12-11T23:06:27.420Z,100494.03
2022-12-11T23:08:58.069Z,100493.84
2022-12-11T23:11:28.084Z,100493.06
2022-12-11T23:13:55.234Z,100489.84
2022-12-11T23:16:23.353Z,100485.41
2022-12-11T23:18:49.953Z,100487.88
2022-12-11T23:21:16.509Z,100490.97
2022-12-11T23:23:43.174Z,100481.00
2022-12-11T23:26:11.956Z,100482.69
2022-12-11T23:28:38.986Z,100476.56
2022-12-11T23:31:06.192Z,100474.56
2022-12-11T23:33:32.841Z,100476.19
2022-12-11T23:35:59.822Z,100462.97
2022-12-11T23:38:26.575Z,100469.28
2022-12-11T23:40:53.339Z,100474.91
2022-12-11T23:43:19.911Z,100481.84
2022-12-11T23:45:46.803Z,100482.00
2022-12-11T23:48:13.928Z,100474.47
2022-12-11T23:50:41.692Z,100483.38
2022-12-11T23:53:08.340Z,100479.25
2022-12-11T23:55:34.971Z,100487.38
2022-12-11T23:58:01.544Z,100477.97
